createdAt,value
2023-03-23T00:01:17.354Z,187.51
2023-03-23T00:05:17.470Z,186.48
2023-03-23T00:09:17.554Z,186.36
2023-03-23T00:13:17.620Z,186.94
2023-03-23T00:17:17.709Z,185.09
2023-03-23T00:21:17.776Z,185.33
2023-03-23T00:25:17.965Z,185.59
2023-03-23T00:29:18.047Z,185.77
2023-03-23T00:33:18.164Z,184.37
2023-03-23T00:37:18.196Z,185.30
2023-03-23T00:41:18.283Z,184.54
2023-03-23T00:45:18.426Z,186.08
2023-03-23T00:49:18.482Z,185.13
2023-03-23T00:53:18.674Z,185.57
2023-03-23T00:57:18.814Z,184.98
2023-03-23T01:01:18.929Z,185.38
2023-03-23T01:05:19.028Z,184.39
2023-03-23T01:09:19.196Z,184.45
2023-03-23T01:13:19.329Z,182.78
2023-03-23T01:17:19.404Z,183.65
2023-03-23T01:21:19.494Z,183.74
2023-03-23T01:25:19.538Z,183.07
2023-03-23T01:29:19.540Z,183.41
2023-03-23T01:33:19.456Z,181.03
2023-03-23T01:37:19.424Z,180.44
2023-03-23T01:41:19.422Z,181.70
2023-03-23T01:45:19.590Z,179.89
2023-03-23T01:49:19.388Z,180.58
2023-03-23T01:53:19.301Z,180.61
2023-03-23T01:57:19.258Z,182.39
2023-03-23T02:01:20.278Z,182.41
2023-03-23T02:05:19.174Z,181.84
2023-03-23T02:09:19.209Z,180.65
2023-03-23T02:13:20.149Z,181.27
2023-03-23T02:17:19.086Z,179.56
2023-03-23T02:21:19.080Z,181.06
2023-03-23T02:25:18.996Z,181.71
2023-03-23T02:29:19.126Z,179.56
2023-03-23T02:33:19.191Z,178.23
2023-03-23T02:37:19.340Z,180.04
2023-03-23T02:45:19.683Z,178.15
2023-03-23T02:49:19.888Z,179.38
2023-03-23T02:53:20.039Z,178.33
2023-03-23T02:57:20.180Z,178.01
2023-03-23T03:01:21.176Z,178.56
2023-03-23T03:05:20.089Z,177.04
2023-03-23T03:09:20.069Z,177.27
2023-03-23T03:13:20.138Z,174.97
2023-03-23T03:17:20.301Z,176.28
2023-03-23T03:21:20.501Z,177.42
2023-03-23T03:25:20.620Z,177.12
2023-03-23T03:29:20.800Z,175.97
2023-03-23T03:33:20.744Z,175.81
2023-03-23T03:37:20.725Z,175.77
2023-03-23T03:41:20.657Z,175.00
2023-03-23T03:45:20.673Z,174.72
2023-03-23T03:49:20.605Z,175.18
2023-03-23T03:53:20.561Z,174.18
2023-03-23T03:57:21.554Z,175.54
2023-03-23T04:01:20.488Z,173.56
2023-03-23T04:05:20.617Z,175.63
2023-03-23T04:09:20.717Z,175.86
2023-03-23T04:13:20.876Z,175.03
2023-03-23T04:17:21.022Z,174.55
2023-03-23T04:21:21.174Z,174.04
2023-03-23T04:25:21.384Z,174.60
2023-03-23T04:29:21.617Z,173.06
2023-03-23T04:33:22.418Z,171.96
2023-03-23T04:37:21.937Z,172.47
2023-03-23T04:41:22.174Z,172.54
2023-03-23T04:45:22.345Z,172.30
2023-03-23T04:49:22.547Z,172.09
2023-03-23T04:53:22.570Z,172.32
2023-03-23T04:57:22.478Z,171.39
2023-03-23T05:01:22.455Z,172.77
2023-03-23T05:05:22.427Z,170.70
2023-03-23T05:09:22.360Z,165.85
2023-03-23T05:13:22.314Z,161.31
2023-03-23T05:17:22.261Z,153.05
2023-03-23T05:21:22.240Z,144.28
2023-03-23T05:25:22.185Z,139.14
2023-03-23T05:29:22.186Z,133.54
2023-03-23T05:33:22.171Z,126.18
2023-03-23T05:37:22.348Z,121.96
2023-03-23T05:41:22.471Z,120.40
2023-03-23T05:45:22.654Z,119.45
2023-03-23T05:49:22.836Z,119.27
2023-03-23T05:53:23.024Z,117.23
2023-03-23T05:57:23.013Z,118.18
2023-03-23T06:01:22.948Z,118.19
2023-03-23T06:05:22.891Z,120.04
2023-03-23T06:09:22.892Z,118.10
2023-03-23T06:13:22.812Z,119.69
2023-03-23T06:17:22.814Z,119.94
2023-03-23T06:21:22.742Z,121.13
2023-03-23T06:25:22.698Z,118.92
2023-03-23T06:29:22.692Z,118.20
2023-03-23T06:33:22.686Z,119.86
2023-03-23T06:37:22.630Z,127.24
2023-03-23T06:41:22.601Z,120.56
2023-03-23T06:45:22.587Z,117.18
2023-03-23T06:49:22.606Z,115.49
2023-03-23T06:53:22.789Z,115.95
2023-03-23T06:57:22.969Z,118.35
2023-03-23T07:01:22.941Z,120.66
2023-03-23T07:05:23.076Z,121.36
2023-03-23T07:09:27.607Z,124.91
2023-03-23T07:13:24.064Z,123.34
2023-03-23T07:17:22.785Z,123.43
2023-03-23T07:21:22.798Z,125.85
2023-03-23T07:25:22.767Z,128.11
2023-03-23T07:29:22.847Z,130.00
2023-03-23T07:33:22.907Z,129.65
2023-03-23T07:37:23.144Z,131.10
2023-03-23T07:41:22.906Z,137.58
2023-03-23T07:45:23.043Z,136.85
2023-03-23T07:49:23.161Z,138.24
2023-03-23T07:53:23.079Z,139.10
2023-03-23T07:57:23.071Z,143.96
2023-03-23T08:01:23.004Z,139.21
2023-03-23T08:05:22.996Z,136.08
2023-03-23T08:09:23.109Z,142.92
2023-03-23T08:13:23.176Z,139.14
2023-03-23T08:17:22.861Z,139.43
2023-03-23T08:21:22.870Z,144.28
2023-03-23T08:25:22.792Z,148.16
2023-03-23T08:29:22.754Z,155.11
2023-03-23T08:33:23.083Z,125.43
2023-03-23T08:37:23.119Z,93.47
2023-03-23T08:41:23.610Z,90.38
2023-03-23T08:45:22.646Z,99.71
2023-03-23T08:49:22.571Z,105.21
2023-03-23T08:53:23.190Z,106.43
2023-03-23T08:57:22.961Z,114.63
2023-03-23T09:01:23.032Z,121.80
2023-03-23T09:05:23.146Z,118.58
2023-03-23T09:09:23.199Z,121.42
2023-03-23T09:13:23.298Z,123.41
2023-03-23T09:17:23.295Z,130.01
2023-03-23T09:21:23.415Z,133.35
2023-03-23T09:25:23.471Z,135.95
2023-03-23T09:29:23.558Z,130.36
2023-03-23T09:33:23.629Z,124.38
2023-03-23T09:37:23.587Z,114.41
2023-03-23T09:41:23.615Z,107.74
2023-03-23T09:45:23.720Z,109.30
2023-03-23T09:49:23.730Z,113.79
2023-03-23T09:53:24.122Z,112.61
2023-03-23T09:57:23.829Z,121.03
2023-03-23T10:01:23.871Z,127.90
2023-03-23T10:05:23.880Z,128.51
2023-03-23T10:09:23.917Z,129.53
2023-03-23T10:13:23.909Z,134.54
2023-03-23T10:17:23.923Z,126.12
2023-03-23T10:21:23.950Z,126.44
2023-03-23T10:25:24.088Z,131.11
2023-03-23T10:29:24.295Z,130.84
2023-03-23T10:33:24.274Z,130.34
2023-03-23T10:37:24.647Z,148.11
2023-03-23T10:41:26.118Z,0.00
2023-03-23T10:45:24.152Z,29.70
2023-03-23T10:49:24.110Z,69.72
2023-03-23T10:53:24.182Z,78.52
2023-03-23T10:57:24.201Z,83.47
2023-03-23T11:01:24.262Z,86.64
2023-03-23T11:05:24.960Z,90.55
2023-03-23T11:09:24.382Z,97.62
2023-03-23T11:13:24.349Z,107.48
2023-03-23T11:17:24.321Z,109.05
2023-03-23T11:21:24.308Z,99.86
2023-03-23T11:25:24.256Z,115.42
2023-03-23T11:29:24.626Z,34.68
2023-03-23T11:33:25.706Z,67.39
2023-03-23T11:37:24.168Z,58.12
2023-03-23T11:41:24.091Z,30.28
2023-03-23T11:45:24.062Z,42.72
2023-03-23T11:53:24.020Z,46.61
2023-03-23T11:57:24.044Z,88.32
2023-03-23T12:01:24.279Z,73.82
2023-03-23T12:05:24.428Z,69.69
2023-03-23T12:09:24.545Z,60.86
2023-03-23T12:13:24.691Z,75.94
2023-03-23T12:17:24.850Z,42.33
2023-03-23T12:21:25.198Z,55.41
2023-03-23T12:25:25.053Z,59.34
2023-03-23T12:29:25.099Z,56.12
2023-03-23T12:33:25.135Z,60.49
2023-03-23T12:37:25.249Z,48.27
2023-03-23T12:41:25.324Z,61.72
2023-03-23T12:45:25.393Z,42.94
2023-03-23T12:49:25.427Z,59.36
2023-03-23T12:53:25.470Z,67.46
2023-03-23T12:57:25.589Z,77.13
2023-03-23T13:01:25.642Z,77.48
2023-03-23T13:05:25.728Z,90.95
2023-03-23T13:09:25.826Z,74.00
2023-03-23T13:13:25.863Z,70.27
2023-03-23T13:17:25.874Z,65.88
2023-03-23T13:21:25.967Z,48.33
2023-03-23T13:25:25.991Z,63.75
2023-03-23T13:29:26.003Z,40.29
2023-03-23T13:33:26.049Z,46.79
2023-03-23T13:37:26.095Z,48.62
2023-03-23T13:41:26.145Z,34.22
2023-03-23T13:45:26.136Z,37.60
2023-03-23T13:49:26.161Z,32.22
2023-03-23T13:53:30.468Z,56.39
2023-03-23T13:57:26.187Z,6.92
2023-03-23T14:01:26.127Z,88.13
2023-03-23T14:05:26.109Z,99.84
2023-03-23T14:09:26.034Z,112.11
2023-03-23T14:13:26.065Z,93.53
2023-03-23T14:17:25.995Z,64.45
2023-03-23T14:21:25.932Z,64.60
2023-03-23T14:25:25.898Z,52.46
2023-03-23T14:29:26.105Z,64.60
2023-03-23T14:33:26.287Z,46.27
2023-03-23T14:37:26.436Z,77.39
2023-03-23T14:41:26.546Z,73.93
2023-03-23T14:45:26.648Z,64.58
2023-03-23T14:49:26.843Z,72.98
2023-03-23T14:53:26.992Z,88.09
2023-03-23T14:57:27.071Z,96.41
2023-03-23T15:01:27.201Z,76.69
2023-03-23T15:05:27.330Z,74.48
2023-03-23T15:09:27.496Z,83.14
2023-03-23T15:13:27.627Z,93.87
2023-03-23T15:17:27.761Z,85.15
2023-03-23T15:21:28.025Z,63.50
2023-03-23T15:25:28.147Z,71.89
2023-03-23T15:29:28.324Z,69.83
2023-03-23T15:33:28.878Z,75.30
2023-03-23T15:37:28.726Z,72.95
2023-03-23T15:41:28.871Z,69.21
2023-03-23T15:45:29.179Z,58.79
2023-03-23T15:49:29.317Z,62.37
2023-03-23T15:53:29.500Z,54.84
2023-03-23T15:57:29.677Z,73.82
2023-03-23T16:01:29.983Z,92.68
2023-03-23T16:05:30.143Z,62.82
2023-03-23T16:09:30.336Z,61.22
2023-03-23T16:13:30.295Z,60.34
2023-03-23T16:17:30.276Z,68.47
2023-03-23T16:21:30.257Z,74.19
2023-03-23T16:25:30.335Z,79.75
2023-03-23T16:33:30.210Z,96.83
